Time;durP1;ratioP1;P1;durP2;ratioP2;P2;SDS_P1;SDS_P2;PMS_P1;PMS_P2;Temp;Humidity;BMP_temperature;BMP_pressure;BME280_temperature;BME280_humidity;BME280_pressure;Samples;Min_cycle;Max_cycle;Signal;HPM_P1;HPM_P2
2022/07/26 00:01:51;;;;;;;1.90;1.30;;;;;;;23.74;50.92;99389.53;4989866;28;20490;-74
2022/07/26 00:04:17;;;;;;;1.13;1.03;;;;;;;23.73;50.82;99382.47;4985242;28;20553;-74
2022/07/26 00:06:42;;;;;;;3.80;1.40;;;;;;;23.69;50.91;99390.03;4988751;28;20687;-73
2022/07/26 00:09:08;;;;;;;1.27;1.00;;;;;;;23.62;51.06;99392.63;4990746;28;20231;-74
2022/07/26 00:11:33;;;;;;;1.40;1.17;;;;;;;23.54;51.35;99387.38;4988491;28;20238;-74
2022/07/26 00:14:01;;;;;;;1.60;1.13;;;;;;;23.56;51.46;99392.56;4989004;28;20496;-74
2022/07/26 00:16:27;;;;;;;1.80;1.13;;;;;;;23.57;51.33;99389.69;4986789;28;20733;-74
2022/07/26 00:18:53;;;;;;;2.00;1.13;;;;;;;23.62;51.33;99391.78;4988822;28;20893;-74
2022/07/26 00:21:18;;;;;;;1.20;1.00;;;;;;;23.66;51.49;99384.22;4989687;28;20486;-74
2022/07/26 00:23:44;;;;;;;1.50;1.10;;;;;;;23.60;51.46;99375.91;4987772;28;20211;-74
2022/07/26 00:26:09;;;;;;;1.43;1.07;;;;;;;23.53;51.91;99379.53;4985621;28;20744;-74
2022/07/26 00:28:35;;;;;;;1.93;1.30;;;;;;;23.50;51.41;99390.63;4990101;28;20348;-74
2022/07/26 00:31:00;;;;;;;1.30;1.20;;;;;;;23.45;51.45;99382.31;4987731;28;20219;-74
2022/07/26 00:33:26;;;;;;;3.10;1.20;;;;;;;23.45;51.50;99391.19;4986722;28;20492;-74
2022/07/26 00:35:51;;;;;;;2.00;1.40;;;;;;;23.42;51.65;99397.75;4982511;28;20204;-74
2022/07/26 00:38:16;;;;;;;2.27;1.07;;;;;;;23.41;51.63;99398.78;4987956;28;20593;-74
2022/07/26 00:40:42;;;;;;;1.30;1.20;;;;;;;23.38;51.32;99391.06;4971920;28;20253;-74
2022/07/26 00:43:07;;;;;;;2.37;2.17;;;;;;;23.37;51.32;99396.63;4986576;28;20667;-74
2022/07/26 00:45:33;;;;;;;2.93;1.47;;;;;;;23.31;51.65;99402.75;4986950;28;21706;-74
2022/07/26 00:47:58;;;;;;;1.40;1.20;;;;;;;23.31;51.18;99402.75;4989192;28;20217;-74
2022/07/26 00:50:23;;;;;;;1.77;1.20;;;;;;;23.22;51.43;99401.97;4987562;28;20579;-74
2022/07/26 00:52:49;;;;;;;1.20;0.97;;;;;;;23.16;51.74;99411.59;4986751;28;20219;-74
2022/07/26 00:55:16;;;;;;;1.30;1.07;;;;;;;23.18;51.52;99416.78;4989815;28;20302;-74
2022/07/26 00:57:42;;;;;;;1.60;1.30;;;;;;;23.24;51.51;99424.06;4986223;28;20219;-74
2022/07/26 01:00:14;;;;;;;1.20;1.07;;;;;;;23.31;51.32;99418.81;4986936;28;20641;-74
2022/07/26 01:02:40;;;;;;;1.40;1.10;;;;;;;23.37;51.17;99420.75;4989158;28;20553;-74
2022/07/26 01:05:06;;;;;;;1.77;1.20;;;;;;;23.32;51.16;99420.47;4975944;28;20726;-74
2022/07/26 01:07:32;;;;;;;1.50;1.27;;;;;;;23.22;51.71;99427.94;4985185;28;20475;-74
2022/07/26 01:09:57;;;;;;;1.83;1.10;;;;;;;23.12;51.78;99426.38;4970741;28;20617;-74
2022/07/26 01:12:23;;;;;;;1.27;1.10;;;;;;;23.09;52.04;99420.56;4989166;28;20670;-74
2022/07/26 01:14:48;;;;;;;1.50;1.40;;;;;;;23.12;52.06;99415.66;4989605;28;20227;-74
2022/07/26 01:17:14;;;;;;;1.63;1.20;;;;;;;23.13;52.05;99425.34;4986565;28;20278;-74
2022/07/26 01:19:40;;;;;;;1.50;1.40;;;;;;;23.13;51.78;99428.03;4987369;28;20243;-74
2022/07/26 01:22:06;;;;;;;2.60;1.20;;;;;;;23.13;51.93;99421.84;4988422;28;20258;-74
2022/07/26 01:24:31;;;;;;;1.20;1.10;;;;;;;23.11;52.07;99422.03;4986371;28;20509;-74
2022/07/26 01:26:56;;;;;;;1.80;1.10;;;;;;;23.09;51.92;99416.03;4985519;28;20233;-74
2022/07/26 01:29:23;;;;;;;2.40;1.60;;;;;;;23.09;51.81;99418.72;4988663;28;20265;-74
2022/07/26 01:31:48;;;;;;;1.40;1.20;;;;;;;23.13;51.85;99413.81;4984741;28;20199;-74
2022/07/26 01:34:14;;;;;;;2.30;1.00;;;;;;;23.18;51.71;99419.47;4988532;28;20512;-74
2022/07/26 01:36:39;;;;;;;1.20;1.10;;;;;;;23.21;51.76;99420.94;4986138;28;20588;-74
2022/07/26 01:39:05;;;;;;;1.30;1.13;;;;;;;23.20;51.79;99422.78;4987005;28;20815;-74
2022/07/26 01:41:30;;;;;;;1.87;1.10;;;;;;;23.17;51.56;99420.50;4987888;28;20210;-74
2022/07/26 01:43:55;;;;;;;1.70;1.23;;;;;;;23.15;52.00;99415.28;4987910;28;20221;-74
2022/07/26 01:46:21;;;;;;;1.50;1.40;;;;;;;23.17;51.69;99417.81;4970359;28;20242;-74
2022/07/26 01:48:46;;;;;;;1.40;1.30;;;;;;;23.10;51.86;99419.53;4987261;28;20692;-74
2022/07/26 01:51:12;;;;;;;1.93;1.10;;;;;;;23.02;52.24;99415.09;4983221;28;20218;-74
2022/07/26 01:53:37;;;;;;;1.40;1.20;;;;;;;22.95;52.57;99416.78;4987314;28;20216;-74
2022/07/26 01:56:03;;;;;;;2.00;1.20;;;;;;;22.86;52.60;99415.22;4988914;28;20697;-74
2022/07/26 01:58:28;;;;;;;3.03;1.30;;;;;;;22.85;52.56;99424.28;4986255;28;20306;-74
2022/07/26 02:00:53;;;;;;;1.63;1.43;;;;;;;22.87;52.92;99427.59;4981562;28;20200;-74
2022/07/26 02:03:19;;;;;;;1.80;1.30;;;;;;;22.94;52.62;99429.38;4986718;28;20502;-74
2022/07/26 02:05:44;;;;;;;1.67;1.30;;;;;;;22.96;52.57;99429.22;4988490;28;20866;-74
2022/07/26 02:08:10;;;;;;;3.20;1.60;;;;;;;22.94;52.81;99429.38;4985992;28;20256;-74
2022/07/26 02:13:19;;;;;;;1.57;1.47;;;;;;;22.92;52.97;99441.28;4987859;28;20607;-74
2022/07/26 02:15:45;;;;;;;2.37;1.30;;;;;;;22.91;53.26;99435.09;4995271;28;20449;-74
2022/07/26 02:18:10;;;;;;;1.80;1.27;;;;;;;22.87;53.72;99439.16;4972999;28;20746;-74
2022/07/26 02:20:36;;;;;;;2.20;1.50;;;;;;;22.86;53.70;99432.13;4995114;28;20246;-74
2022/07/26 02:23:02;;;;;;;2.13;1.30;;;;;;;22.87;53.51;99427.59;4975335;28;20217;-74
2022/07/26 02:25:29;;;;;;;3.27;1.40;;;;;;;22.83;53.87;99427.13;4994300;28;20265;-74
2022/07/26 02:27:54;;;;;;;1.60;1.50;;;;;;;22.83;53.95;99427.13;4993072;28;20970;-74
2022/07/26 02:30:20;;;;;;;2.60;1.20;;;;;;;22.85;53.61;99424.28;4992289;28;20541;-76
2022/07/26 02:32:46;;;;;;;2.03;1.50;;;;;;;22.87;53.64;99427.59;4994245;28;20586;-76
2022/07/26 02:35:12;;;;;;;1.70;1.30;;;;;;;22.90;53.57;99437.94;4995069;28;20213;-76
2022/07/26 02:37:39;;;;;;;1.60;1.23;;;;;;;22.91;53.09;99434.25;4992182;28;20508;-76
2022/07/26 02:40:05;;;;;;;2.07;1.20;;;;;;;22.90;53.42;99429.91;4991897;28;20569;-76
2022/07/26 02:42:30;;;;;;;3.97;1.60;;;;;;;22.90;53.13;99427.22;4994674;28;20466;-73
2022/07/26 02:44:56;;;;;;;2.00;1.17;;;;;;;22.89;52.77;99425.56;4994186;28;20470;-74
2022/07/26 02:47:21;;;;;;;1.30;1.10;;;;;;;22.86;53.50;99425.94;4994700;28;20211;-74
2022/07/26 02:49:46;;;;;;;1.87;1.30;;;;;;;22.78;53.69;99432.19;4991523;28;20230;-74
2022/07/26 02:52:12;;;;;;;2.27;1.20;;;;;;;22.67;54.09;99433.44;4993727;28;20270;-74
2022/07/26 02:54:37;;;;;;;2.67;1.30;;;;;;;22.57;54.59;99432.84;4994544;28;20580;-73
2022/07/26 02:57:03;;;;;;;1.60;1.27;;;;;;;22.47;55.00;99443.00;4993343;28;20223;-74
2022/07/26 02:59:28;;;;;;;1.40;1.13;;;;;;;22.42;54.89;99426.63;4992178;28;20600;-74
2022/07/26 03:01:54;;;;;;;1.83;1.37;;;;;;;22.35;55.22;99425.69;4993743;28;20204;-74
2022/07/26 03:04:19;;;;;;;1.40;1.30;;;;;;;22.27;55.73;99426.56;4991448;28;20282;-73
2022/07/26 03:06:45;;;;;;;1.93;1.47;;;;;;;22.17;56.12;99424.09;4994476;28;20224;-74
2022/07/26 03:09:10;;;;;;;1.80;1.50;;;;;;;22.05;56.28;99420.16;4991680;28;20226;-73
2022/07/26 03:11:36;;;;;;;1.50;1.40;;;;;;;21.98;56.63;99419.16;4992865;28;20204;-74
2022/07/26 03:14:01;;;;;;;1.87;1.43;;;;;;;21.94;56.76;99423.22;4991142;28;20300;-74
2022/07/26 03:16:27;;;;;;;1.93;1.63;;;;;;;21.90;57.13;99424.56;4994564;28;20232;-73
2022/07/26 03:18:52;;;;;;;2.37;1.67;;;;;;;21.87;57.11;99425.75;4992155;28;20380;-74
2022/07/26 03:21:17;;;;;;;2.50;1.97;;;;;;;21.89;57.09;99437.09;4992370;28;20579;-74
2022/07/26 03:23:43;;;;;;;3.00;1.63;;;;;;;21.91;57.03;99434.28;4988498;28;20287;-73
2022/07/26 03:26:08;;;;;;;1.50;1.30;;;;;;;21.88;57.35;99432.78;4983394;28;20217;-73
2022/07/26 03:28:34;;;;;;;2.00;1.43;;;;;;;21.89;57.58;99439.78;4990433;28;20468;-73
2022/07/26 03:31:00;;;;;;;2.10;1.40;;;;;;;21.88;57.62;99428.25;4985925;28;20653;-74
2022/07/26 03:33:27;;;;;;;2.23;1.63;;;;;;;21.88;57.46;99438.13;4991083;28;20982;-74
2022/07/26 03:35:53;;;;;;;2.13;1.60;;;;;;;21.87;57.55;99439.13;4991427;28;20467;-74
2022/07/26 03:38:18;;;;;;;1.30;1.20;;;;;;;21.90;57.60;99432.59;4985916;28;20495;-73
2022/07/26 03:40:43;;;;;;;1.67;1.13;;;;;;;21.98;57.57;99437.91;4980923;28;20570;-74
2022/07/26 03:43:09;;;;;;;2.40;1.40;;;;;;;22.05;57.32;99441.53;4985914;28;20201;-73
2022/07/26 03:45:34;;;;;;;3.20;1.50;;;;;;;22.12;57.17;99444.38;4986218;28;20292;-73
2022/07/26 03:48:00;;;;;;;2.57;1.70;;;;;;;22.14;57.18;99443.16;4984049;28;20219;-75
2022/07/26 03:50:25;;;;;;;1.33;1.20;;;;;;;22.15;57.05;99450.19;4986887;28;20311;-75
2022/07/26 03:52:50;;;;;;;7.37;3.50;;;;;;;22.14;57.32;99447.66;4989875;28;20231;-76
2022/07/26 03:58:00;;;;;;;1.43;1.33;;;;;;;22.12;57.46;99447.88;4983369;28;20656;-76
2022/07/26 04:00:25;;;;;;;1.50;1.37;;;;;;;22.09;57.86;99449.06;4985360;28;20469;-76
2022/07/26 04:02:51;;;;;;;1.77;1.40;;;;;;;22.09;57.84;99454.41;4989803;28;20603;-77
2022/07/26 04:05:16;;;;;;;1.53;1.30;;;;;;;22.09;57.79;99453.56;4990454;28;20458;-76
2022/07/26 04:07:43;;;;;;;2.20;1.43;;;;;;;22.12;57.77;99455.06;4988873;28;20225;-76
2022/07/26 04:10:09;;;;;;;3.10;2.00;;;;;;;22.09;57.77;99446.38;4987870;28;20568;-76
2022/07/26 04:12:35;;;;;;;2.60;1.23;;;;;;;22.12;57.78;99450.53;4988887;28;20898;-76
2022/07/26 04:15:00;;;;;;;3.83;1.70;;;;;;;22.12;57.71;99449.72;4987832;28;20491;-77
2022/07/26 04:17:25;;;;;;;1.73;1.63;;;;;;;22.11;57.73;99451.53;4991102;28;20711;-76
2022/07/26 04:19:51;;;;;;;1.60;1.50;;;;;;;22.05;57.95;99444.22;4986515;28;20224;-76
2022/07/26 04:22:16;;;;;;;3.40;1.60;;;;;;;21.97;58.26;99452.28;4986059;28;20204;-76
2022/07/26 04:24:42;;;;;;;2.40;1.53;;;;;;;21.90;58.79;99449.50;4972965;28;20537;-76
2022/07/26 04:27:07;;;;;;;1.90;1.50;;;;;;;21.91;58.83;99453.00;4990062;28;20209;-76
2022/07/26 04:29:32;;;;;;;2.00;1.70;;;;;;;21.93;58.93;99450.94;4989213;28;20622;-76
2022/07/26 04:31:58;;;;;;;1.30;1.20;;;;;;;21.99;58.79;99455.63;4982664;28;20235;-76
2022/07/26 04:34:23;;;;;;;2.30;1.90;;;;;;;22.05;58.58;99449.56;4987267;28;20217;-76
2022/07/26 04:36:49;;;;;;;6.50;2.17;;;;;;;22.12;58.53;99458.56;4986027;28;20320;-76
2022/07/26 04:39:14;;;;;;;2.00;1.70;;;;;;;22.22;58.13;99455.69;4987551;28;20275;-76
2022/07/26 04:41:40;;;;;;;2.47;2.00;;;;;;;22.22;58.36;99451.16;4986006;28;20292;-75
2022/07/26 04:44:05;;;;;;;3.30;1.83;;;;;;;22.22;58.49;99458.34;4985694;28;20576;-76
2022/07/26 04:46:30;;;;;;;1.67;1.57;;;;;;;22.15;58.65;99463.56;4984891;28;20279;-75
2022/07/26 04:48:56;;;;;;;2.50;1.70;;;;;;;22.12;58.35;99469.28;4986363;28;20243;-75
2022/07/26 04:51:21;;;;;;;1.70;1.60;;;;;;;22.06;58.56;99472.63;4985315;28;20599;-76
2022/07/26 04:53:47;;;;;;;2.10;1.93;;;;;;;22.02;58.99;99474.00;4987156;28;20299;-76
2022/07/26 04:56:12;;;;;;;2.70;1.93;;;;;;;21.94;59.11;99472.19;4986885;28;20236;-75
2022/07/26 04:58:37;;;;;;;2.40;2.20;;;;;;;21.85;59.50;99479.41;4988849;28;20303;-75
2022/07/26 05:01:03;;;;;;;3.03;2.00;;;;;;;21.78;59.76;99478.44;4987459;28;20204;-75
2022/07/26 05:03:28;;;;;;;4.57;2.10;;;;;;;21.84;59.80;99475.06;4983595;28;20511;-75
2022/07/26 05:05:53;;;;;;;4.20;2.60;;;;;;;21.92;59.51;99481.38;4988778;28;20212;-76
2022/07/26 05:08:19;;;;;;;6.47;2.23;;;;;;;21.92;59.57;99482.22;4977142;28;20332;-76
2022/07/26 05:10:44;;;;;;;2.10;1.90;;;;;;;21.96;58.95;99488.91;4989356;28;20205;-76
2022/07/26 05:13:10;;;;;;;3.43;1.80;;;;;;;21.99;58.89;99472.50;4985372;28;20215;-75
2022/07/26 05:15:35;;;;;;;2.00;1.90;;;;;;;21.94;58.68;99479.38;4987375;28;20220;-76
2022/07/26 05:18:04;;;;;;;3.30;1.93;;;;;;;21.99;58.48;99479.69;4989166;28;20236;-75
2022/07/26 05:20:29;;;;;;;2.07;1.80;;;;;;;22.10;58.50;99480.13;4988474;28;20251;-75
2022/07/26 05:22:55;;;;;;;5.83;1.90;;;;;;;22.22;57.78;99477.91;4988284;28;20446;-76
2022/07/26 05:25:21;;;;;;;2.10;1.73;;;;;;;22.41;57.17;99475.81;4988597;28;20213;-76
2022/07/26 05:27:46;;;;;;;2.30;2.10;;;;;;;22.85;56.00;99478.66;4987899;28;20473;-76
2022/07/26 05:30:12;;;;;;;3.20;2.17;;;;;;;23.59;53.74;99476.13;4988976;28;20200;-76
2022/07/26 05:32:37;;;;;;;3.30;2.30;;;;;;;24.73;50.74;99473.81;4982193;28;20745;-76
2022/07/26 05:35:04;;;;;;;1.87;1.67;;;;;;;25.50;48.60;99474.00;4984358;28;20214;-76
2022/07/26 05:37:30;;;;;;;2.50;2.03;;;;;;;25.75;47.69;99469.78;4988659;28;20336;-76
2022/07/26 05:39:55;;;;;;;2.13;1.70;;;;;;;27.28;43.90;99469.34;4988396;28;20937;-76
2022/07/26 05:42:20;;;;;;;3.67;2.10;;;;;;;28.55;40.99;99464.31;4998337;28;20234;-76
2022/07/26 05:44:46;;;;;;;2.30;1.80;;;;;;;29.31;39.00;99466.81;5005648;28;20405;-76
2022/07/26 05:47:11;;;;;;;2.73;1.60;;;;;;;28.89;39.90;99471.97;5007466;28;20512;-76
2022/07/26 05:49:37;;;;;;;2.10;1.80;;;;;;;28.28;41.02;99477.97;5002623;28;20228;-76
2022/07/26 05:52:02;;;;;;;3.43;1.90;;;;;;;27.44;43.10;99484.25;5007758;28;20265;-77
2022/07/26 05:54:28;;;;;;;5.03;2.23;;;;;;;27.03;44.21;99478.03;4981751;28;20208;-78
2022/07/26 05:56:53;;;;;;;3.73;2.10;;;;;;;27.35;43.20;99479.09;4998261;28;20246;-76
2022/07/26 05:59:18;;;;;;;2.00;1.63;;;;;;;28.43;41.00;99483.09;4970003;28;20247;-76
2022/07/26 06:01:44;;;;;;;2.47;2.10;;;;;;;29.85;37.86;99480.66;4979353;28;20500;-77
2022/07/26 06:04:09;;;;;;;5.03;2.03;;;;;;;30.85;36.03;99479.31;4981715;28;20235;-76
2022/07/26 06:06:35;;;;;;;2.10;1.87;;;;;;;31.78;34.07;99477.66;4979754;28;20739;-78
2022/07/26 06:09:00;;;;;;;3.40;2.00;;;;;;;32.00;33.34;99485.19;4979427;28;20427;-78
2022/07/26 06:11:25;;;;;;;2.10;1.90;;;;;;;31.48;34.00;99488.69;4976565;28;20755;-78
2022/07/26 06:13:51;;;;;;;2.77;2.10;;;;;;;30.12;36.39;99489.28;4983431;28;20212;-77
2022/07/26 06:16:16;;;;;;;2.40;1.77;;;;;;;28.61;39.59;99498.56;4983518;28;20229;-76
2022/07/26 06:18:42;;;;;;;4.17;2.40;;;;;;;27.27;42.22;99487.38;4984216;28;20368;-77
2022/07/26 06:21:07;;;;;;;2.77;1.70;;;;;;;26.44;44.25;99500.31;4979407;28;20201;-76
2022/07/26 06:23:32;;;;;;;4.00;2.07;;;;;;;25.70;45.63;99501.00;4982217;28;20293;-76
2022/07/26 06:25:58;;;;;;;2.10;1.90;;;;;;;25.19;47.04;99503.97;4984442;28;20213;-78
2022/07/26 06:28:23;;;;;;;2.50;1.53;;;;;;;26.42;44.28;99507.78;4978595;28;20243;-76
2022/07/26 06:30:49;;;;;;;2.50;2.00;;;;;;;27.23;41.55;99501.50;4976327;28;20689;-77
2022/07/26 06:33:14;;;;;;;4.22;2.15;;;;;;;26.50;42.87;99502.19;4980511;28;20492;-77
2022/07/26 06:35:41;;;;;;;2.20;1.90;;;;;;;26.49;43.37;99500.50;4983283;28;20247;-77
2022/07/26 06:38:07;;;;;;;3.70;1.77;;;;;;;28.24;39.42;99498.31;4977815;28;20612;-76
2022/07/26 06:40:33;;;;;;;3.50;2.00;;;;;;;28.65;38.73;99505.19;4976802;28;20447;-76
2022/07/26 06:42:59;;;;;;;3.30;2.00;;;;;;;28.79;37.85;99495.97;4984361;28;20455;-78
2022/07/26 06:45:26;;;;;;;3.63;2.17;;;;;;;28.40;38.42;99503.22;4983475;28;20486;-76
2022/07/26 06:47:52;;;;;;;1.50;1.40;;;;;;;29.15;36.67;99499.84;4977591;28;20569;-77
2022/07/26 06:50:17;;;;;;;2.53;1.97;;;;;;;30.26;34.59;99494.53;4983055;28;20957;-77
2022/07/26 06:52:42;;;;;;;2.40;1.83;;;;;;;31.45;32.27;99505.47;4981327;28;20209;-76
2022/07/26 06:55:08;;;;;;;3.00;1.93;;;;;;;32.34;31.23;99500.56;4980256;28;20203;-77
2022/07/26 06:57:34;;;;;;;2.10;1.90;;;;;;;32.92;29.57;99495.06;4977330;28;20604;-77
2022/07/26 07:00:01;;;;;;;4.60;1.70;;;;;;;32.89;29.61;99485.50;4984590;28;20232;-77
2022/07/26 07:02:26;;;;;;;3.37;2.50;;;;;;;33.26;28.89;99502.19;4979717;28;20456;-76
2022/07/26 07:04:51;;;;;;;3.43;1.90;;;;;;;33.85;28.00;99477.16;4984625;28;20471;-77
2022/07/26 07:07:17;;;;;;;1.90;1.47;;;;;;;34.25;27.00;99480.66;4983993;28;20231;-77
2022/07/26 07:09:42;;;;;;;1.77;1.67;;;;;;;33.91;27.57;99483.47;4984218;28;20329;-77
2022/07/26 07:12:07;;;;;;;2.60;1.80;;;;;;;34.10;27.20;99487.56;4968863;28;20213;-77
2022/07/26 07:14:33;;;;;;;1.87;1.57;;;;;;;34.67;26.43;99483.53;4982568;28;20205;-77
2022/07/26 07:16:59;;;;;;;2.90;1.37;;;;;;;35.06;25.94;99474.31;4979982;28;20225;-77
2022/07/26 07:19:24;;;;;;;3.10;1.77;;;;;;;35.45;25.58;99483.84;4986608;28;20320;-78
2022/07/26 07:21:50;;;;;;;1.40;1.30;;;;;;;35.83;24.62;99481.88;4986646;28;20576;-77
2022/07/26 07:24:16;;;;;;;1.83;1.50;;;;;;;36.41;23.89;99479.09;4965495;28;20259;-78
2022/07/26 07:26:42;;;;;;;1.93;1.47;;;;;;;36.71;23.52;99472.84;4978599;28;20603;-78
2022/07/26 07:29:11;;;;;;;2.00;1.40;;;;;;;36.54;23.58;99477.78;4982868;28;20225;-77
2022/07/26 07:31:37;;;;;;;3.00;1.87;;;;;;;36.82;23.04;99476.41;4985450;28;20209;-77
2022/07/26 07:34:02;;;;;;;1.60;1.50;;;;;;;37.15;22.52;99477.78;4986592;28;20673;-77
2022/07/26 07:36:28;;;;;;;2.30;1.70;;;;;;;36.99;22.57;99473.41;4982686;28;20785;-77
2022/07/26 07:38:53;;;;;;;2.90;1.70;;;;;;;36.71;22.51;99472.03;4984759;28;20288;-77
2022/07/26 07:41:18;;;;;;;2.07;1.40;;;;;;;35.88;23.44;99478.38;4987131;28;20587;-77
2022/07/26 07:43:44;;;;;;;3.00;1.47;;;;;;;35.28;24.58;99469.56;4983955;28;20260;-78
2022/07/26 07:46:11;;;;;;;5.17;1.67;;;;;;;34.80;25.02;99480.38;4982070;28;22487;-77
2022/07/26 07:48:37;;;;;;;3.30;2.87;;;;;;;34.05;25.75;99473.00;4983606;28;20321;-77
2022/07/26 07:51:02;;;;;;;2.80;1.93;;;;;;;34.25;25.41;99480.66;4985284;28;20527;-77
2022/07/26 07:53:28;;;;;;;3.57;1.97;;;;;;;34.43;24.82;99469.38;4985505;28;20521;-77
2022/07/26 07:55:53;;;;;;;1.67;1.57;;;;;;;33.86;25.44;99470.59;4982018;28;20259;-78
2022/07/26 07:58:19;;;;;;;2.57;1.67;;;;;;;33.84;25.83;99475.50;4986235;28;20271;-77
2022/07/26 08:00:45;;;;;;;3.60;1.30;;;;;;;34.34;25.00;99458.09;4980185;28;20222;-77
2022/07/26 08:03:10;;;;;;;2.50;1.90;;;;;;;34.71;24.88;99464.75;4984497;28;20484;-77
2022/07/26 08:05:36;;;;;;;1.87;1.67;;;;;;;35.14;23.90;99461.03;4984667;28;20217;-77
2022/07/26 08:08:02;;;;;;;1.77;1.30;;;;;;;35.69;22.95;99467.09;4978091;28;20320;-77
2022/07/26 08:10:28;;;;;;;2.80;2.10;;;;;;;36.18;22.47;99466.72;4976395;28;20342;-76
2022/07/26 08:12:53;;;;;;;3.33;1.80;;;;;;;36.02;22.60;99463.09;4983551;28;21249;-76
2022/07/26 08:15:20;;;;;;;4.23;1.50;;;;;;;35.71;22.52;99464.91;4966272;28;21057;-77
2022/07/26 08:17:46;;;;;;;2.70;1.53;;;;;;;35.51;23.20;99470.22;4981324;28;20304;-76
2022/07/26 08:20:11;;;;;;;1.57;1.47;;;;;;;35.49;22.94;99477.91;4978619;28;20884;-76
2022/07/26 08:22:37;;;;;;;2.20;1.70;;;;;;;35.11;23.56;99472.47;4984996;28;20216;-76
2022/07/26 08:25:03;;;;;;;3.27;1.80;;;;;;;34.52;24.33;99470.56;4983890;28;20213;-76
2022/07/26 08:27:28;;;;;;;7.90;1.97;;;;;;;34.57;24.11;99467.91;4980961;28;20271;-76
2022/07/26 08:29:53;;;;;;;2.43;1.60;;;;;;;34.59;23.82;99473.09;4982555;28;20480;-76
2022/07/26 08:32:19;;;;;;;2.50;1.60;;;;;;;34.47;24.42;99472.41;4978271;28;20564;-76
2022/07/26 08:34:44;;;;;;;4.07;2.23;;;;;;;34.10;24.40;99476.66;4986074;28;20197;-76
2022/07/26 08:37:09;;;;;;;6.80;1.53;;;;;;;33.52;24.94;99472.63;4978330;28;20757;-76
2022/07/26 08:39:35;;;;;;;2.03;1.80;;;;;;;33.27;25.54;99483.97;4984165;28;20249;-76
2022/07/26 08:42:03;;;;;;;3.37;1.50;;;;;;;32.28;26.40;99479.78;4981329;28;20241;-75
2022/07/26 08:44:29;;;;;;;1.80;1.70;;;;;;;31.46;27.98;99480.81;4983153;28;20213;-76
2022/07/26 08:46:55;;;;;;;3.03;1.90;;;;;;;30.81;29.19;99484.41;4979818;28;20718;-75
2022/07/26 08:49:20;;;;;;;4.20;1.80;;;;;;;30.08;30.54;99487.25;4979799;28;20226;-75
2022/07/26 08:51:46;;;;;;;1.70;1.60;;;;;;;29.33;31.55;99490.97;4981835;28;20705;-75
2022/07/26 08:54:13;;;;;;;1.97;1.43;;;;;;;28.88;32.36;99489.22;4983638;28;20207;-75
2022/07/26 08:56:52;;;;;;;5.13;2.20;;;;;;;28.71;32.89;99484.59;4979807;28;20714;-77
2022/07/26 08:59:19;;;;;;;5.00;1.83;;;;;;;28.78;32.45;99493.47;4984664;28;20464;-76
2022/07/26 09:01:57;;;;;;;1.87;1.50;;;;;;;29.15;31.94;99493.63;4984090;28;20459;-76
2022/07/26 09:04:26;;;;;;;1.50;1.30;;;;;;;29.25;31.53;99497.50;4980067;28;20467;-77
2022/07/26 09:07:03;;;;;;;1.53;1.37;;;;;;;29.32;30.92;99495.53;4977799;28;20526;-75
2022/07/26 09:09:30;;;;;;;2.37;1.47;;;;;;;29.15;31.08;99497.16;4981530;28;20490;-75
2022/07/26 09:11:56;;;;;;;1.43;1.33;;;;;;;29.14;31.20;99486.53;4974989;28;20460;-76
2022/07/26 09:14:34;;;;;;;2.07;1.20;;;;;;;29.13;31.73;99490.31;4983030;28;20517;-75
2022/07/26 09:17:00;;;;;;;1.30;1.20;;;;;;;29.44;31.05;99492.13;4981702;28;20972;-75
2022/07/26 09:19:26;;;;;;;1.50;1.40;;;;;;;29.59;30.29;99492.56;4973572;28;20492;-75
2022/07/26 09:21:54;;;;;;;2.60;1.57;;;;;;;29.56;30.41;99490.31;4983026;28;20224;-74
2022/07/26 09:24:31;;;;;;;2.20;1.50;;;;;;;29.39;30.67;99494.66;4977473;28;20547;-75
2022/07/26 09:26:58;;;;;;;2.40;1.30;;;;;;;28.96;31.24;99496.25;4983962;28;20556;-76
2022/07/26 09:29:24;;;;;;;1.60;1.50;;;;;;;28.93;31.44;99496.69;4976738;28;20492;-76
2022/07/26 09:31:49;;;;;;;2.70;1.47;;;;;;;29.10;31.09;99491.56;4981240;28;20562;-76
2022/07/26 09:34:24;;;;;;;1.30;1.20;;;;;;;28.98;31.27;99498.75;4982731;28;20291;-75
2022/07/26 09:36:51;;;;;;;1.40;1.30;;;;;;;28.64;31.66;99495.44;4983627;28;20232;-75
2022/07/26 09:39:17;;;;;;;1.50;1.20;;;;;;;28.63;31.71;99491.09;4979936;28;21050;-77
2022/07/26 09:41:42;;;;;;;4.00;1.20;;;;;;;28.70;31.75;99499.97;4983936;28;20466;-76
2022/07/26 09:44:23;;;;;;;1.93;1.37;;;;;;;28.64;31.77;99504.38;4974484;28;20205;-76
2022/07/26 09:46:57;;;;;;;2.17;1.40;;;;;;;28.83;31.25;99496.34;4963706;28;20255;-78
2022/07/26 09:49:24;;;;;;;1.50;1.20;;;;;;;28.53;31.24;99493.44;4963727;28;20738;-77
2022/07/26 09:51:52;;;;;;;3.20;1.40;;;;;;;28.09;31.93;99495.91;4982014;28;20619;-76
2022/07/26 09:54:28;;;;;;;8.10;1.60;;;;;;;28.38;31.53;99497.22;4981935;28;20829;-76
2022/07/26 09:56:54;;;;;;;2.10;1.30;;;;;;;28.48;31.41;99502.19;4979749;28;20495;-75
2022/07/26 09:59:21;;;;;;;2.17;1.30;;;;;;;28.39;31.61;99508.88;4982051;28;20563;-76
2022/07/26 10:01:48;;;;;;;2.73;1.67;;;;;;;28.42;31.81;99503.84;4980314;28;20287;-76
2022/07/26 10:04:14;;;;;;;3.73;1.40;;;;;;;28.56;31.22;99506.50;4979602;28;20510;-77
2022/07/26 10:06:41;;;;;;;1.37;1.10;;;;;;;29.02;30.58;99508.06;4976464;28;20882;-76
2022/07/26 10:09:07;;;;;;;2.03;1.30;;;;;;;29.13;30.08;99501.94;4977625;28;20511;-76
2022/07/26 10:11:42;;;;;;;3.33;1.50;;;;;;;29.33;29.96;99501.78;4978782;28;20952;-77
2022/07/26 10:14:32;;;;;;;2.97;1.30;;;;;;;29.04;30.80;99500.59;4967053;28;20467;-76
2022/07/26 10:16:58;;;;;;;1.30;1.20;;;;;;;28.51;31.58;99509.03;4976913;28;20837;-76
2022/07/26 10:19:40;;;;;;;1.77;1.30;;;;;;;28.41;31.97;99506.78;4981302;28;20517;-78
2022/07/26 10:22:32;;;;;;;2.00;1.40;;;;;;;29.24;30.70;99501.22;4980645;28;20459;-77
2022/07/26 10:25:16;;;;;;;1.30;1.20;;;;;;;30.13;29.38;99495.50;4978793;28;20448;-76
2022/07/26 10:27:49;;;;;;;2.07;1.20;;;;;;;30.58;28.07;99498.69;4981105;28;20558;-76
2022/07/26 10:30:24;;;;;;;1.77;1.30;;;;;;;29.82;28.63;99500.06;4982605;28;20475;-78
2022/07/26 10:32:49;;;;;;;2.40;1.50;;;;;;;29.61;28.88;99495.88;4981949;28;20464;-76
2022/07/26 10:35:33;;;;;;;1.40;1.07;;;;;;;29.68;29.24;99493.97;4986169;28;20456;-77
2022/07/26 10:38:01;;;;;;;2.57;1.20;;;;;;;29.73;28.97;99499.53;4983375;28;20720;-77
2022/07/26 10:40:30;;;;;;;2.00;1.23;;;;;;;29.97;28.91;99502.38;5004022;23;21040;-76
2022/07/26 10:43:16;;;;;;;3.33;1.50;;;;;;;30.31;28.29;99500.09;4961841;28;20457;-76
2022/07/26 10:45:43;;;;;;;1.73;1.07;;;;;;;30.20;28.76;99491.66;4963957;28;20469;-76
2022/07/26 10:48:13;;;;;;;3.80;1.60;;;;;;;30.09;28.29;99483.50;4959953;28;20464;-76
2022/07/26 10:50:40;;;;;;;1.60;1.50;;;;;;;30.17;28.38;99485.88;4964515;28;20496;-76
2022/07/26 10:53:09;;;;;;;3.23;1.33;;;;;;;30.57;27.58;99488.91;4962379;28;20841;-76
2022/07/26 10:55:50;;;;;;;4.10;1.53;;;;;;;30.77;26.87;99495.91;4956908;28;21038;-76
2022/07/26 10:58:15;;;;;;;5.13;1.70;;;;;;;30.59;27.51;99496.78;4968115;28;20496;-77
2022/07/26 11:00:59;;;;;;;1.30;1.20;;;;;;;30.63;27.20;99474.41;4965499;28;20492;-78
2022/07/26 11:03:34;;;;;;;1.30;1.10;;;;;;;30.13;27.77;99480.06;4970725;28;20225;-79
2022/07/26 11:06:08;;;;;;;1.73;1.17;;;;;;;29.60;28.20;99475.28;4962113;28;20468;-78
2022/07/26 11:08:34;;;;;;;1.90;1.10;;;;;;;29.24;28.81;99471.47;4964619;28;20556;-78
2022/07/26 11:10:59;;;;;;;1.50;1.23;;;;;;;28.95;29.19;99475.66;4964481;28;20456;-78
2022/07/26 11:13:24;;;;;;;1.40;1.30;;;;;;;28.76;30.12;99468.53;4966267;28;20662;-77
2022/07/26 11:16:02;;;;;;;1.40;1.00;;;;;;;29.10;29.96;99470.75;4958688;28;20221;-78
2022/07/26 11:18:31;;;;;;;1.50;1.40;;;;;;;29.68;28.96;99466.91;4966702;28;20193;-77
2022/07/26 11:21:08;;;;;;;2.90;1.43;;;;;;;30.18;28.64;99466.69;4966741;28;20461;-77
2022/07/26 11:23:35;;;;;;;2.50;1.80;;;;;;;30.26;27.78;99473.69;4965436;28;20916;-77
2022/07/26 11:26:09;;;;;;;1.93;1.30;;;;;;;29.78;28.47;99472.59;4964126;28;20469;-77
2022/07/26 11:29:01;;;;;;;1.30;1.10;;;;;;;29.58;29.31;99465.75;4967240;28;20470;-77
2022/07/26 11:31:34;;;;;;;3.50;1.33;;;;;;;29.79;29.05;99465.31;4957434;28;20536;-77
2022/07/26 11:34:01;;;;;;;1.70;1.33;;;;;;;30.12;28.59;99455.94;4961629;28;20486;-78
2022/07/26 11:36:36;;;;;;;1.20;1.10;;;;;;;30.05;28.14;99466.03;4967258;28;20242;-77
2022/07/26 11:39:04;;;;;;;1.70;1.43;;;;;;;29.65;28.31;99464.66;4965767;28;20620;-77